Time;durP1;ratioP1;P1;durP2;ratioP2;P2;SDS_P1;SDS_P2;PMS_P1;PMS_P2;Temp;Humidity;BMP_temperature;BMP_pressure;BME280_temperature;BME280_humidity;BME280_pressure;Samples;Min_cycle;Max_cycle;Signal;HPM_P1;HPM_P2
2022/06/27 00:00:15;;;;;;;151.98;143.88;;;;;;;18.69;100.00;96381.75;5032260;28;20284;-65
2022/06/27 00:02:41;;;;;;;258.35;240.77;;;;;;;18.40;100.00;96357.19;5032958;28;20167;-65
2022/06/27 00:05:07;;;;;;;199.00;186.23;;;;;;;18.46;100.00;96367.44;5032758;28;20167;-65
2022/06/27 00:07:32;;;;;;;135.70;128.60;;;;;;;18.58;100.00;96388.28;5032999;28;20241;-65
2022/06/27 00:09:58;;;;;;;132.23;125.35;;;;;;;18.60;100.00;96412.69;5032477;28;20662;-66
2022/06/27 00:12:23;;;;;;;198.93;188.55;;;;;;;18.64;100.00;96448.22;5032718;28;20159;-65
2022/06/27 00:14:49;;;;;;;247.17;233.83;;;;;;;18.58;100.00;96452.00;5032725;28;20237;-65
2022/06/27 00:17:15;;;;;;;275.80;261.43;;;;;;;18.68;100.00;96468.59;5032593;28;20166;-64
2022/06/27 00:19:40;;;;;;;300.45;282.90;;;;;;;18.49;100.00;96488.19;5032339;28;20205;-65
2022/06/27 00:22:06;;;;;;;215.38;204.48;;;;;;;18.15;100.00;96493.63;5032452;28;20620;-64
2022/06/27 00:24:32;;;;;;;187.98;178.35;;;;;;;17.90;100.00;96499.16;5032665;28;20181;-65
2022/06/27 00:26:58;;;;;;;154.53;146.57;;;;;;;17.68;100.00;96511.03;5032614;28;20178;-65
2022/06/27 00:29:24;;;;;;;109.73;103.77;;;;;;;17.61;100.00;96507.88;5032602;28;20185;-65
2022/06/27 00:31:49;;;;;;;99.17;94.10;;;;;;;17.44;100.00;96542.72;5032471;28;20317;-66
2022/06/27 00:34:15;;;;;;;56.17;53.07;;;;;;;17.51;100.00;96591.97;5032340;28;20612;-65
2022/06/27 00:36:40;;;;;;;92.03;86.53;;;;;;;17.41;100.00;96641.31;5032388;28;20182;-65
2022/06/27 00:39:05;;;;;;;45.67;43.27;;;;;;;17.32;100.00;96711.84;5042144;28;20265;-65
2022/06/27 00:41:31;;;;;;;63.47;59.73;;;;;;;17.29;100.00;96746.81;5051861;28;20737;-66
2022/06/27 00:43:56;;;;;;;32.83;30.83;;;;;;;17.36;100.00;96770.38;5050973;28;20173;-65
2022/06/27 00:46:22;;;;;;;74.83;70.77;;;;;;;17.40;100.00;96774.06;5052214;28;20659;-65
2022/06/27 00:48:47;;;;;;;60.83;57.33;;;;;;;17.14;100.00;96762.75;5052073;28;20207;-65
2022/06/27 00:51:13;;;;;;;84.43;80.00;;;;;;;17.16;100.00;96750.03;5052104;28;20194;-65
2022/06/27 00:53:39;;;;;;;99.07;93.13;;;;;;;17.07;100.00;96738.41;5052202;28;20197;-66
2022/06/27 00:56:05;;;;;;;44.83;42.43;;;;;;;16.95;100.00;96693.66;5051750;28;20168;-66
2022/06/27 00:58:31;;;;;;;34.33;32.43;;;;;;;16.75;100.00;96675.19;5052114;28;20169;-65
2022/06/27 01:00:56;;;;;;;23.17;21.77;;;;;;;16.44;100.00;96642.66;5051664;28;20202;-65
2022/06/27 01:03:22;;;;;;;24.23;22.77;;;;;;;16.38;100.00;96622.59;5052406;28;20162;-65
2022/06/27 01:05:54;;;;;;;20.63;19.57;;;;;;;16.36;100.00;96637.91;5052168;28;20185;-64
2022/06/27 01:08:21;;;;;;;34.67;32.53;;;;;;;16.29;100.00;96560.69;5052138;28;20182;-64
2022/06/27 01:10:47;;;;;;;62.93;58.63;;;;;;;16.00;100.00;96457.34;5052087;28;20217;-65
2022/06/27 01:13:13;;;;;;;195.33;35.23;;;;;;;16.01;100.00;96530.31;5052338;28;20239;-65
2022/06/27 01:15:41;;;;;;;27.20;25.60;;;;;;;16.35;100.00;96590.56;5050711;28;20325;-65
2022/06/27 01:18:07;;;;;;;32.63;30.73;;;;;;;16.42;100.00;96552.19;5051971;28;20167;-65
2022/06/27 01:20:33;;;;;;;53.50;50.53;;;;;;;16.11;100.00;96540.88;5051932;28;20249;-66
2022/06/27 01:22:58;;;;;;;43.17;40.13;;;;;;;16.43;100.00;96564.38;5055830;28;20663;-66
2022/06/27 01:25:25;;;;;;;34.50;32.50;;;;;;;16.43;100.00;96567.00;5055971;28;20181;-66
2022/06/27 01:27:51;;;;;;;47.80;45.10;;;;;;;16.37;100.00;96539.00;5056166;28;20524;-66
2022/06/27 01:30:16;;;;;;;38.60;35.97;;;;;;;16.17;100.00;96516.00;5055707;28;20197;-66
2022/06/27 01:32:42;;;;;;;48.47;45.93;;;;;;;16.16;100.00;96516.31;5055710;28;20190;-65
2022/06/27 01:35:08;;;;;;;39.83;37.43;;;;;;;16.12;100.00;96502.00;5055933;28;20184;-66
2022/06/27 01:37:34;;;;;;;36.20;33.80;;;;;;;16.11;100.00;96501.22;5055754;28;20273;-66
2022/06/27 01:40:00;;;;;;;41.07;38.50;;;;;;;16.19;100.00;96479.53;5031867;28;20323;-66
2022/06/27 01:42:27;;;;;;;58.00;54.23;;;;;;;16.10;100.00;96493.56;5035683;28;20244;-66
2022/06/27 01:44:53;;;;;;;42.13;39.67;;;;;;;16.07;100.00;96510.75;5035677;28;20170;-66
2022/06/27 01:47:19;;;;;;;53.40;50.37;;;;;;;16.16;100.00;96524.25;5017744;28;20171;-66
2022/06/27 01:49:45;;;;;;;51.20;48.23;;;;;;;16.03;100.00;96530.88;5035484;28;20530;-66
2022/06/27 01:52:14;;;;;;;55.13;52.17;;;;;;;16.13;100.00;96530.03;5035475;28;20241;-67
2022/06/27 01:54:40;;;;;;;56.83;53.43;;;;;;;16.25;100.00;96505.94;5034657;28;20237;-67
2022/06/27 01:57:08;;;;;;;52.70;49.80;;;;;;;16.22;100.00;96515.19;5035297;28;20165;-67
2022/06/27 01:59:33;;;;;;;54.33;51.23;;;;;;;16.33;100.00;96508.06;5034857;28;20191;-67
2022/06/27 02:02:01;;;;;;;66.40;62.57;;;;;;;16.35;100.00;96508.56;5035170;28;20217;-67
2022/06/27 02:04:28;;;;;;;60.63;56.60;;;;;;;16.37;100.00;96501.16;5033959;28;20186;-67
2022/06/27 02:06:56;;;;;;;53.77;50.73;;;;;;;16.37;100.00;96499.31;5035230;28;20216;-66
2022/06/27 02:09:22;;;;;;;51.83;48.93;;;;;;;16.50;100.00;96490.78;5035205;28;20178;-66
2022/06/27 02:11:49;;;;;;;54.13;51.23;;;;;;;16.27;100.00;96490.63;5035320;28;20190;-67
2022/06/27 02:14:15;;;;;;;55.30;52.30;;;;;;;16.63;100.00;96490.22;5034769;28;20163;-67
2022/06/27 02:16:42;;;;;;;53.60;50.73;;;;;;;16.52;100.00;96464.06;5035268;28;20666;-66
2022/06/27 02:19:13;;;;;;;52.20;49.40;;;;;;;16.52;100.00;96472.00;5034989;28;20689;-66
2022/06/27 02:21:41;;;;;;;59.57;56.33;;;;;;;16.56;100.00;96486.25;5035371;28;20566;-66
2022/06/27 02:24:08;;;;;;;65.00;61.53;;;;;;;16.73;100.00;96502.63;5033539;28;20166;-66
2022/06/27 02:26:33;;;;;;;61.23;57.47;;;;;;;16.79;100.00;96508.69;5034797;28;20185;-67
2022/06/27 02:28:59;;;;;;;71.90;67.97;;;;;;;16.95;100.00;96503.03;5034566;28;20573;-67
2022/06/27 02:31:25;;;;;;;75.60;71.40;;;;;;;17.04;100.00;96500.59;5034511;28;20202;-68
2022/06/27 02:33:53;;;;;;;89.43;84.70;;;;;;;16.97;100.00;96498.25;5034309;28;20642;-67
2022/06/27 02:36:24;;;;;;;92.23;87.37;;;;;;;16.94;100.00;96493.50;5034482;28;20627;-67
2022/06/27 02:38:52;;;;;;;86.63;82.03;;;;;;;16.92;100.00;96482.41;5041923;28;20677;-69
2022/06/27 02:41:20;;;;;;;97.60;92.47;;;;;;;16.92;100.00;96478.97;5054285;28;20332;-67
2022/06/27 02:43:53;;;;;;;94.17;89.07;;;;;;;17.01;100.00;96464.06;5054259;28;20162;-66
2022/06/27 02:46:19;;;;;;;100.93;95.57;;;;;;;16.90;100.00;96470.50;5054381;28;20165;-67
2022/06/27 02:48:48;;;;;;;101.53;96.13;;;;;;;16.92;100.00;96460.44;5054371;28;20241;-67
2022/06/27 02:51:15;;;;;;;108.37;102.57;;;;;;;17.04;100.00;96466.19;5054377;28;20285;-67
2022/06/27 02:53:59;;;;;;;110.77;104.73;;;;;;;16.90;100.00;96457.25;5052800;28;20165;-67
2022/06/27 02:56:26;;;;;;;115.37;109.23;;;;;;;17.00;100.00;96443.94;5053939;28;20232;-66
2022/06/27 02:59:03;;;;;;;108.50;102.63;;;;;;;16.88;100.00;96449.59;5053994;28;20198;-67
2022/06/27 03:01:33;;;;;;;106.17;100.40;;;;;;;16.94;100.00;96456.44;5053301;28;20212;-66
2022/06/27 03:04:00;;;;;;;110.60;104.60;;;;;;;16.92;100.00;96455.94;5054070;28;20166;-66
2022/06/27 03:06:26;;;;;;;119.20;112.67;;;;;;;16.99;100.00;96452.97;5054365;28;20239;-67
2022/06/27 03:08:52;;;;;;;121.70;115.13;;;;;;;17.04;100.00;96456.38;5053858;28;20182;-67
2022/06/27 03:11:20;;;;;;;122.47;116.00;;;;;;;16.81;100.00;96453.63;5052297;28;20201;-66
2022/06/27 03:13:46;;;;;;;114.37;107.97;;;;;;;16.85;100.00;96457.28;5052501;28;21061;-66
2022/06/27 03:16:13;;;;;;;126.43;119.63;;;;;;;16.81;100.00;96461.56;5053736;28;20158;-66
2022/06/27 03:18:39;;;;;;;112.47;106.17;;;;;;;16.84;100.00;96461.78;5053645;28;20162;-66
2022/06/27 03:21:04;;;;;;;119.50;112.83;;;;;;;16.72;100.00;96458.69;5053588;28;20289;-66
2022/06/27 03:23:31;;;;;;;111.00;105.03;;;;;;;16.66;100.00;96461.66;5053826;28;20162;-66
2022/06/27 03:25:56;;;;;;;109.47;103.57;;;;;;;16.66;100.00;96469.59;5053465;28;20178;-68
2022/06/27 03:28:22;;;;;;;117.90;111.13;;;;;;;16.76;100.00;96466.88;5053674;28;20181;-66
2022/06/27 03:30:49;;;;;;;124.00;117.07;;;;;;;16.77;100.00;96465.81;5053396;28;20562;-66
2022/06/27 03:33:15;;;;;;;126.63;119.73;;;;;;;16.80;100.00;96474.00;5053594;28;20197;-66
2022/06/27 03:35:42;;;;;;;128.57;121.70;;;;;;;16.76;100.00;96472.97;5052033;28;20304;-66
2022/06/27 03:38:08;;;;;;;125.00;118.27;;;;;;;16.84;100.00;96482.19;5050822;28;20598;-65
2022/06/27 03:40:34;;;;;;;133.30;126.13;;;;;;;16.81;100.00;96486.19;5052879;28;20714;-65
2022/06/27 03:42:59;;;;;;;132.80;125.70;;;;;;;16.99;100.00;96484.75;5053169;28;20284;-65
2022/06/27 03:45:25;;;;;;;132.47;125.23;;;;;;;16.91;100.00;96487.97;5052665;28;20256;-65
2022/06/27 03:47:53;;;;;;;128.30;121.20;;;;;;;16.78;100.00;96504.44;5053214;28;20158;-65
2022/06/27 03:50:23;;;;;;;115.00;108.30;;;;;;;16.84;100.00;96493.56;5052926;28;20261;-65
2022/06/27 03:52:49;;;;;;;106.00;99.97;;;;;;;16.84;100.00;96493.56;5052934;28;20532;-65
2022/06/27 03:55:15;;;;;;;111.27;105.10;;;;;;;17.05;100.00;96486.31;5052434;28;20245;-65
2022/06/27 03:57:48;;;;;;;108.10;102.27;;;;;;;16.97;100.00;96486.88;5052949;28;20189;-65
2022/06/27 04:00:15;;;;;;;102.80;97.10;;;;;;;17.03;100.00;96483.13;5052385;28;20213;-65
2022/06/27 04:02:41;;;;;;;107.43;101.53;;;;;;;17.02;100.00;96463.00;5052847;28;20227;-65
2022/06/27 04:05:07;;;;;;;117.17;110.47;;;;;;;17.19;100.00;96428.19;5053074;28;20196;-66
2022/06/27 04:07:32;;;;;;;124.33;117.53;;;;;;;16.96;100.00;96459.59;5052636;28;20170;-65
2022/06/27 04:09:58;;;;;;;150.20;142.10;;;;;;;17.07;100.00;96480.72;5052678;28;20611;-65
2022/06/27 04:12:23;;;;;;;144.07;136.03;;;;;;;17.13;100.00;96475.13;5051459;28;20174;-65
2022/06/27 04:14:49;;;;;;;157.13;148.50;;;;;;;17.22;100.00;96481.41;5053033;28;20232;-65
2022/06/27 04:17:15;;;;;;;166.43;157.40;;;;;;;17.05;100.00;96462.47;5052728;28;20220;-65
2022/06/27 04:19:40;;;;;;;164.50;155.67;;;;;;;17.17;100.00;96470.03;5052532;28;20209;-65
2022/06/27 04:22:05;;;;;;;180.27;170.57;;;;;;;17.12;100.00;96464.78;5052536;28;20162;-65
2022/06/27 04:24:31;;;;;;;196.43;185.93;;;;;;;17.09;100.00;96458.19;5052572;28;20158;-65
2022/06/27 04:26:57;;;;;;;206.20;195.03;;;;;;;17.20;100.00;96465.00;5052652;28;20208;-65
2022/06/27 04:29:23;;;;;;;186.00;175.77;;;;;;;17.14;100.00;96463.47;5052391;28;20180;-65
2022/06/27 04:31:49;;;;;;;169.63;160.53;;;;;;;17.35;100.00;96456.94;5052236;28;20202;-65
2022/06/27 04:34:14;;;;;;;154.20;146.13;;;;;;;17.40;100.00;96448.94;5052360;28;20212;-64
2022/06/27 04:36:41;;;;;;;151.53;143.50;;;;;;;17.60;100.00;96447.22;5052148;28;20182;-65
2022/06/27 04:39:08;;;;;;;152.30;144.30;;;;;;;17.42;100.00;96443.38;5037862;28;20609;-65
2022/06/27 04:41:33;;;;;;;140.67;133.07;;;;;;;17.70;100.00;96441.81;5032453;28;20663;-65
2022/06/27 04:43:59;;;;;;;129.90;122.97;;;;;;;17.75;100.00;96439.91;5032485;28;20170;-66
2022/06/27 04:46:24;;;;;;;83.20;78.70;;;;;;;18.02;100.00;96438.59;5032431;28;20205;-65
2022/06/27 04:48:51;;;;;;;72.60;68.57;;;;;;;18.09;100.00;96428.44;5032236;28;20173;-65
2022/06/27 04:51:16;;;;;;;93.40;88.27;;;;;;;18.86;100.00;96429.06;5030839;28;20237;-65
2022/06/27 04:53:44;;;;;;;95.97;90.90;;;;;;;19.23;100.00;96434.31;5032273;28;20201;-65
2022/06/27 04:56:11;;;;;;;52.67;49.78;;;;;;;19.56;100.00;96432.47;5034755;28;20174;-65
2022/06/27 04:58:37;;;;;;;65.07;61.40;;;;;;;19.64;100.00;96444.31;5036629;28;20198;-65
2022/06/27 05:01:03;;;;;;;105.60;99.90;;;;;;;19.62;100.00;96444.63;5017618;28;20234;-65
2022/06/27 05:03:28;;;;;;;151.50;143.45;;;;;;;19.73;100.00;96440.69;5015217;28;20164;-65
2022/06/27 05:05:54;;;;;;;203.30;192.15;;;;;;;19.95;100.00;96439.28;5016460;28;20174;-64
2022/06/27 05:08:20;;;;;;;187.07;176.88;;;;;;;20.13;100.00;96433.84;5016356;28;20193;-65
2022/06/27 05:10:46;;;;;;;136.32;128.88;;;;;;;20.53;100.00;96440.25;5016417;28;20238;-66
2022/06/27 05:13:13;;;;;;;139.30;131.90;;;;;;;20.83;100.00;96438.03;5014928;28;20195;-65
2022/06/27 05:15:38;;;;;;;138.00;130.75;;;;;;;21.00;100.00;96444.31;5016236;28;20167;-65
2022/06/27 05:18:04;;;;;;;142.68;135.20;;;;;;;21.15;99.24;96443.97;5016365;28;20175;-65
2022/06/27 05:20:30;;;;;;;128.18;121.75;;;;;;;20.84;100.00;96455.59;5016164;28;20214;-66
2022/06/27 05:22:57;;;;;;;100.50;95.32;;;;;;;21.41;97.17;96451.38;5016143;28;20660;-66
2022/06/27 05:25:22;;;;;;;89.85;84.90;;;;;;;21.21;96.18;96457.97;5016073;28;20182;-65
2022/06/27 05:27:48;;;;;;;138.10;130.68;;;;;;;21.39;95.48;96456.22;5016343;28;20625;-65
2022/06/27 05:30:15;;;;;;;236.98;224.02;;;;;;;21.18;97.09;96468.47;5015750;28;20195;-66
2022/06/27 05:32:41;;;;;;;97.32;92.22;;;;;;;20.98;99.54;96478.44;5015823;28;20525;-65
2022/06/27 05:35:08;;;;;;;126.68;120.20;;;;;;;20.79;98.53;96493.78;5014376;28;20233;-65
2022/06/27 05:40:03;;;;;;;120.88;114.28;;;;;;;20.51;100.00;96519.66;5052334;28;20350;-66
2022/06/27 05:42:29;;;;;;;637.72;599.63;;;;;;;20.17;100.00;96533.28;5054881;28;20215;-66
2022/06/27 05:44:55;;;;;;;575.47;540.95;;;;;;;20.16;100.00;96541.59;5053655;28;20166;-66
2022/06/27 05:47:21;;;;;;;377.85;356.98;;;;;;;20.14;100.00;96551.72;5055131;28;20150;-65
2022/06/27 05:49:48;;;;;;;354.90;334.77;;;;;;;20.36;100.00;96564.41;5055322;28;20169;-65
2022/06/27 05:52:14;;;;;;;337.13;318.42;;;;;;;20.03;100.00;96566.28;5055118;28;20158;-65
2022/06/27 05:54:40;;;;;;;394.83;371.90;;;;;;;20.08;100.00;96572.31;5054535;28;20162;-64
2022/06/27 05:57:06;;;;;;;373.23;351.65;;;;;;;20.63;100.00;96577.75;5053835;28;20166;-65
2022/06/27 05:59:33;;;;;;;317.80;300.27;;;;;;;20.35;100.00;96579.59;5054689;28;20198;-65
2022/06/27 06:02:00;;;;;;;366.88;345.67;;;;;;;19.64;100.00;96582.59;5055464;28;20296;-65
2022/06/27 06:04:26;;;;;;;191.32;180.95;;;;;;;20.29;100.00;96592.16;5055192;28;20154;-64
2022/06/27 06:06:52;;;;;;;267.63;253.05;;;;;;;19.89;100.00;96588.31;5053213;28;20159;-64
2022/06/27 06:09:18;;;;;;;132.35;125.28;;;;;;;20.01;100.00;96587.06;5054969;28;20227;-64
2022/06/27 06:11:48;;;;;;;123.25;116.63;;;;;;;19.93;100.00;96599.19;5054961;28;20710;-64
2022/06/27 06:14:17;;;;;;;136.40;129.27;;;;;;;20.05;100.00;96604.06;5054611;28;20177;-65
2022/06/27 06:16:43;;;;;;;148.20;140.27;;;;;;;19.91;100.00;96617.28;5054918;28;20154;-65
2022/06/27 06:19:10;;;;;;;155.35;147.02;;;;;;;20.07;100.00;96612.50;5055224;28;20202;-66
2022/06/27 06:21:35;;;;;;;269.00;253.90;;;;;;;19.92;100.00;96597.59;5055120;28;20539;-65
2022/06/27 06:24:02;;;;;;;115.70;109.53;;;;;;;20.10;100.00;96588.78;5054616;28;20169;-64
2022/06/27 06:26:27;;;;;;;147.40;139.70;;;;;;;20.01;100.00;96592.38;5055017;28;20185;-66
2022/06/27 06:28:53;;;;;;;148.70;140.90;;;;;;;19.72;100.00;96593.41;5054845;28;20257;-65
2022/06/27 06:31:23;;;;;;;107.93;102.32;;;;;;;20.09;100.00;96591.72;5054715;28;20512;-65
2022/06/27 06:33:50;;;;;;;117.60;111.47;;;;;;;20.85;100.00;96606.34;5054142;28;20397;-63
2022/06/27 06:36:19;;;;;;;341.60;321.58;;;;;;;20.57;100.00;96614.34;5054415;28;20194;-64
2022/06/27 06:38:47;;;;;;;214.18;202.77;;;;;;;20.50;100.00;96621.16;5051690;28;20236;-65
2022/06/27 06:41:13;;;;;;;249.95;236.07;;;;;;;20.97;99.68;96615.44;5054507;28;20213;-65
2022/06/27 06:43:38;;;;;;;380.10;358.30;;;;;;;20.95;97.57;96611.50;5046717;28;20269;-64
2022/06/27 06:46:04;;;;;;;381.08;359.20;;;;;;;20.91;96.36;96616.63;5034701;28;20167;-65
2022/06/27 06:48:30;;;;;;;446.17;419.95;;;;;;;20.80;97.43;96617.13;5034411;28;20276;-66
2022/06/27 06:50:56;;;;;;;472.45;444.52;;;;;;;20.66;97.94;96623.25;5034269;28;20627;-65
2022/06/27 06:53:21;;;;;;;664.45;622.05;;;;;;;20.77;98.33;96615.06;5034289;28;20163;-66
2022/06/27 06:55:48;;;;;;;644.30;603.33;;;;;;;20.90;96.57;96622.28;5034356;28;20186;-65
2022/06/27 06:58:13;;;;;;;470.35;443.33;;;;;;;21.37;94.54;96618.41;5034360;28;20523;-66
2022/06/27 07:00:39;;;;;;;218.68;206.55;;;;;;;21.44;94.85;96621.44;5051490;28;20206;-66
2022/06/27 07:03:07;;;;;;;134.85;127.35;;;;;;;21.30;94.37;96626.00;5054555;28;20169;-65
2022/06/27 07:05:33;;;;;;;150.77;142.25;;;;;;;20.95;96.87;96632.84;5054755;28;20174;-66
2022/06/27 07:08:00;;;;;;;207.02;195.75;;;;;;;20.96;97.29;96635.19;5054571;28;20638;-65
2022/06/27 07:10:26;;;;;;;534.78;503.15;;;;;;;20.55;100.00;96626.38;5054705;28;20209;-66
2022/06/27 07:12:51;;;;;;;613.65;576.58;;;;;;;21.03;97.45;96634.78;5053611;28;20623;-66
2022/06/27 07:15:18;;;;;;;544.70;511.67;;;;;;;20.98;95.05;96638.34;5054153;28;20166;-64
2022/06/27 07:17:49;;;;;;;458.75;432.38;;;;;;;21.03;94.96;96645.44;5053849;28;20177;-66
2022/06/27 07:20:18;;;;;;;469.05;441.45;;;;;;;20.82;97.46;96626.41;5050967;28;20213;-64
2022/06/27 07:22:48;;;;;;;494.10;464.83;;;;;;;21.42;94.21;96613.75;5053674;28;20169;-65
2022/06/27 07:25:14;;;;;;;410.00;386.45;;;;;;;21.36;93.08;96609.59;5052275;28;20178;-65
2022/06/27 07:27:41;;;;;;;571.35;537.30;;;;;;;21.09;94.65;96614.94;5053986;28;20176;-64
2022/06/27 07:30:11;;;;;;;357.58;337.63;;;;;;;21.46;92.24;96613.91;5053349;28;20193;-64
2022/06/27 07:32:39;;;;;;;142.95;134.93;;;;;;;21.64;91.73;96625.53;5050773;28;20209;-67
2022/06/27 07:35:07;;;;;;;149.68;141.52;;;;;;;21.66;91.58;96629.50;5052843;28;20182;-69
2022/06/27 07:37:34;;;;;;;137.70;130.52;;;;;;;22.01;90.24;96635.94;5052889;28;20190;-63
2022/06/27 07:39:59;;;;;;;164.40;155.70;;;;;;;22.25;86.17;96638.28;5031771;28;20234;-69
2022/06/27 07:42:25;;;;;;;258.10;245.45;;;;;;;21.50;88.31;96654.94;5033579;28;20192;-66
2022/06/27 07:44:51;;;;;;;130.20;123.25;;;;;;;21.50;89.62;96647.72;5033551;28;20158;-63
2022/06/27 07:47:16;;;;;;;96.63;91.60;;;;;;;21.96;87.62;96657.38;5033217;28;20193;-64
2022/06/27 07:49:42;;;;;;;251.13;237.77;;;;;;;22.06;85.20;96667.06;5033312;28;20190;-65
2022/06/27 07:52:07;;;;;;;207.07;196.55;;;;;;;22.42;82.69;96666.97;5033027;28;20175;-67
2022/06/27 07:54:33;;;;;;;160.88;152.75;;;;;;;22.33;83.78;96677.63;5032920;28;20197;-66
2022/06/27 07:57:00;;;;;;;175.10;166.18;;;;;;;22.42;84.61;96680.34;5032922;28;20220;-67
2022/06/27 07:59:25;;;;;;;181.15;171.35;;;;;;;21.98;86.29;96684.56;5020811;28;20261;-68
2022/06/27 08:01:51;;;;;;;225.80;214.30;;;;;;;21.58;87.58;96688.88;5013239;28;20202;-66
2022/06/27 08:04:18;;;;;;;251.20;238.63;;;;;;;21.61;85.31;96690.97;5013236;28;20531;-66
2022/06/27 08:06:50;;;;;;;88.70;84.00;;;;;;;21.57;88.76;96690.75;5012803;28;20540;-69
2022/06/27 08:09:21;;;;;;;129.02;122.38;;;;;;;21.86;87.14;96697.63;5027568;28;20202;-67
2022/06/27 08:11:47;;;;;;;237.18;225.50;;;;;;;22.04;86.52;96698.59;5032542;28;20190;-68
2022/06/27 08:14:18;;;;;;;143.20;135.80;;;;;;;22.87;78.83;96692.56;5031058;28;20186;-68
2022/06/27 08:16:49;;;;;;;114.05;108.18;;;;;;;21.95;85.13;96694.00;5032346;28;20658;-65
2022/06/27 08:19:15;;;;;;;123.07;116.75;;;;;;;21.98;84.63;96692.59;5031234;28;20206;-68
2022/06/27 08:21:43;;;;;;;222.25;211.23;;;;;;;22.51;82.74;96694.56;5033295;28;20233;-68
2022/06/27 08:24:11;;;;;;;145.43;138.05;;;;;;;22.36;81.58;96703.72;5032498;28;20614;-69
2022/06/27 08:26:37;;;;;;;127.43;120.93;;;;;;;22.58;80.48;96693.00;5032681;28;20200;-69
2022/06/27 08:29:05;;;;;;;211.75;200.88;;;;;;;22.85;78.56;96694.75;5032351;28;20171;-69
2022/06/27 08:31:32;;;;;;;314.30;296.52;;;;;;;22.82;78.53;96700.72;5032440;28;20272;-68
2022/06/27 08:34:00;;;;;;;518.80;486.10;;;;;;;22.79;76.72;96702.13;5032750;28;20178;-68
2022/06/27 08:36:30;;;;;;;274.10;259.40;;;;;;;22.30;80.62;96707.59;5032142;28;20273;-69
2022/06/27 08:38:59;;;;;;;244.60;231.88;;;;;;;22.57;81.58;96718.16;5041170;28;20323;-69
2022/06/27 08:41:26;;;;;;;446.92;418.67;;;;;;;22.68;78.65;96710.69;5043966;28;20600;-66
2022/06/27 08:44:04;;;;;;;580.42;542.55;;;;;;;22.79;79.59;96712.03;5032480;28;20175;-69
2022/06/27 08:46:30;;;;;;;563.35;528.13;;;;;;;22.37;81.19;96718.66;5038588;28;20249;-69
2022/06/27 08:48:57;;;;;;;530.97;499.58;;;;;;;22.46;78.84;96711.47;5052359;28;20224;-62
2022/06/27 08:51:23;;;;;;;593.00;557.28;;;;;;;22.38;79.48;96714.88;5052063;28;20234;-68
2022/06/27 08:53:51;;;;;;;557.63;525.10;;;;;;;23.10;75.50;96714.69;5052340;28;20190;-68
2022/06/27 08:56:19;;;;;;;557.05;524.25;;;;;;;23.42;74.87;96722.38;5052228;28;20208;-68
2022/06/27 08:58:46;;;;;;;537.35;504.88;;;;;;;23.60;72.51;96723.25;5044641;28;20225;-69
2022/06/27 09:01:15;;;;;;;425.95;401.48;;;;;;;23.12;74.06;96709.84;5030799;28;20515;-68
2022/06/27 09:03:40;;;;;;;494.15;464.80;;;;;;;23.05;73.35;96709.50;5032082;28;20163;-68
2022/06/27 09:06:11;;;;;;;623.67;586.72;;;;;;;22.63;76.83;96708.13;5032023;28;20539;-69
2022/06/27 09:08:55;;;;;;;684.92;642.42;;;;;;;21.94;78.57;96713.75;5032176;28;20171;-68
2022/06/27 09:11:32;;;;;;;575.85;540.40;;;;;;;22.33;79.28;96715.81;5031998;28;20204;-68
2022/06/27 09:13:59;;;;;;;288.02;272.98;;;;;;;22.08;80.64;96728.94;5032362;28;20163;-68
2022/06/27 09:16:24;;;;;;;264.38;250.45;;;;;;;22.27;80.58;96734.91;5030765;28;20162;-68
2022/06/27 09:18:50;;;;;;;358.48;338.42;;;;;;;22.19;79.54;96740.97;5032198;28;20574;-68
2022/06/27 09:21:17;;;;;;;198.32;187.90;;;;;;;22.43;79.67;96728.13;5031953;28;20206;-70
2022/06/27 09:23:50;;;;;;;276.95;262.23;;;;;;;22.52;80.22;96741.53;5030573;28;20171;-70
2022/06/27 09:26:35;;;;;;;217.93;205.73;;;;;;;22.59;79.81;96723.97;5031783;28;20177;-67
2022/06/27 09:29:08;;;;;;;185.48;175.88;;;;;;;22.38;80.91;96731.72;5031680;28;20609;-69
2022/06/27 09:31:45;;;;;;;154.57;146.52;;;;;;;22.40;80.64;96734.09;5031815;28;20210;-69
2022/06/27 09:34:10;;;;;;;268.02;254.25;;;;;;;22.40;81.79;96734.09;5031747;28;20178;-69
2022/06/27 09:36:42;;;;;;;272.88;258.58;;;;;;;21.85;83.79;96736.88;5039906;28;20236;-66
2022/06/27 09:39:18;;;;;;;191.07;181.23;;;;;;;21.53;86.14;96716.47;5049667;28;20237;-70
2022/06/27 09:41:50;;;;;;;272.33;257.27;;;;;;;22.17;83.32;96716.47;5051719;28;20206;-66
2022/06/27 09:44:21;;;;;;;190.10;180.40;;;;;;;22.15;82.13;96718.63;5055053;28;20158;-68
2022/06/27 09:46:54;;;;;;;269.23;254.18;;;;;;;22.48;80.74;96719.97;5054165;28;20274;-69
2022/06/27 09:49:23;;;;;;;214.73;203.75;;;;;;;22.52;81.96;96715.59;5055718;28;20304;-68
2022/06/27 09:51:49;;;;;;;178.25;169.05;;;;;;;22.11;83.00;96709.66;5055134;28;20190;-68
2022/06/27 09:54:22;;;;;;;321.50;303.88;;;;;;;22.33;82.43;96718.47;5054993;28;20166;-68
2022/06/27 09:56:50;;;;;;;215.80;204.77;;;;;;;21.82;83.77;96720.66;5053801;28;20514;-68
2022/06/27 09:59:16;;;;;;;209.00;197.35;;;;;;;22.25;83.25;96732.53;5054773;28;20198;-68
2022/06/27 10:01:43;;;;;;;244.02;230.23;;;;;;;22.13;85.03;96734.16;5040108;28;20667;-68
2022/06/27 10:04:10;;;;;;;299.63;283.05;;;;;;;22.33;82.95;96739.84;5042530;28;20166;-68
2022/06/27 10:06:39;;;;;;;158.88;150.50;;;;;;;21.79;83.77;96748.72;5055332;28;20165;-68
2022/06/27 10:09:08;;;;;;;278.92;264.33;;;;;;;22.21;82.40;96760.16;5053473;28;20170;-63
2022/06/27 10:11:36;;;;;;;311.00;293.25;;;;;;;22.40;82.01;96750.09;5055165;28;20217;-68
2022/06/27 10:14:22;;;;;;;300.08;283.70;;;;;;;21.64;85.00;96758.94;5039275;28;20177;-66
2022/06/27 10:16:52;;;;;;;236.60;223.98;;;;;;;22.31;82.32;96771.38;5033795;28;20194;-62
2022/06/27 10:19:18;;;;;;;227.98;216.20;;;;;;;22.69;80.34;96766.50;5033954;28;20198;-64
2022/06/27 10:21:47;;;;;;;134.90;128.05;;;;;;;22.73;80.11;96772.84;5034797;28;20194;-64
2022/06/27 10:24:18;;;;;;;416.42;391.33;;;;;;;23.40;76.38;96786.13;5034530;28;20570;-68
2022/06/27 10:26:44;;;;;;;536.03;503.67;;;;;;;23.68;73.12;96789.41;5034888;28;20186;-66
2022/06/27 10:29:32;;;;;;;617.22;579.50;;;;;;;22.39;80.18;96812.63;5034661;28;20237;-66
2022/06/27 10:31:58;;;;;;;736.20;685.92;;;;;;;22.56;80.14;96815.44;5034747;28;20289;-69
2022/06/27 10:34:39;;;;;;;581.40;545.05;;;;;;;22.42;79.80;96822.69;5034360;28;20240;-67
2022/06/27 10:37:26;;;;;;;215.35;204.00;;;;;;;22.28;80.29;96820.06;5050917;28;20572;-64
2022/06/27 10:40:20;;;;;;;302.95;287.20;;;;;;;21.86;82.88;96818.50;5033833;28;20600;-59
2022/06/27 10:42:49;;;;;;;309.02;291.65;;;;;;;21.68;84.56;96819.41;5034232;28;20193;-61
2022/06/27 10:45:20;;;;;;;180.65;170.88;;;;;;;22.18;82.73;96822.94;5029903;28;20187;-64
2022/06/27 10:47:49;;;;;;;183.13;173.13;;;;;;;22.34;81.48;96828.78;5033820;28;20249;-65
2022/06/27 10:50:17;;;;;;;227.48;214.75;;;;;;;22.43;80.92;96821.63;5033980;28;20190;-62
2022/06/27 10:52:42;;;;;;;239.35;225.88;;;;;;;22.37;79.72;96822.81;5033922;28;20163;-66
2022/06/27 10:55:31;;;;;;;119.18;112.78;;;;;;;22.39;80.23;96831.31;5033406;28;20155;-68
2022/06/27 10:57:58;;;;;;;97.88;92.63;;;;;;;22.45;80.54;96826.66;5033041;28;20208;-65
2022/06/27 11:00:43;;;;;;;80.65;76.50;;;;;;;22.26;81.54;96824.13;5033772;28;20207;-65
2022/06/27 11:03:20;;;;;;;81.40;77.10;;;;;;;22.14;83.02;96815.84;5033903;28;20163;-62
2022/06/27 11:05:54;;;;;;;79.95;75.78;;;;;;;22.06;82.56;96813.88;5034029;28;20212;-63